createdAt,value
2019-05-10T00:05:21.581Z,14.17
2019-05-10T00:10:26.007Z,11.97
2019-05-10T00:15:32.691Z,14.23
2019-05-10T00:20:37.746Z,12.20
2019-05-10T00:25:42.787Z,16.00
2019-05-10T00:30:48.079Z,13.70
2019-05-10T00:35:53.196Z,12.07
2019-05-10T00:40:58.163Z,11.57
2019-05-10T00:46:03.278Z,11.40
2019-05-10T00:51:08.276Z,15.23
2019-05-10T00:56:13.527Z,14.80
2019-05-10T01:01:18.870Z,11.27
2019-05-10T01:06:24.796Z,12.60
2019-05-10T01:11:30.039Z,12.40
2019-05-10T01:16:35.059Z,16.77
2019-05-10T01:21:40.140Z,11.67
2019-05-10T01:26:45.161Z,11.80
2019-05-10T01:31:50.171Z,13.77
2019-05-10T01:36:55.311Z,13.23
2019-05-10T01:42:00.399Z,10.83
2019-05-10T01:47:05.731Z,16.40
2019-05-10T01:52:10.739Z,10.50
2019-05-10T01:57:15.754Z,13.67
2019-05-10T02:02:20.920Z,12.40
2019-05-10T02:07:25.959Z,11.67
2019-05-10T02:12:30.907Z,11.07
2019-05-10T02:17:36.092Z,12.13
2019-05-10T02:22:42.274Z,14.77
2019-05-10T02:27:47.222Z,12.13
2019-05-10T02:32:53.417Z,10.27
2019-05-10T02:37:58.366Z,13.90
2019-05-10T02:43:03.417Z,12.53
2019-05-10T02:48:08.432Z,11.67
2019-05-10T02:53:13.468Z,10.93
2019-05-10T02:58:18.887Z,13.43
2019-05-10T03:03:26.775Z,18.27
2019-05-10T03:08:51.854Z,13.53
2019-05-10T03:13:59.898Z,14.13
2019-05-10T03:19:04.951Z,19.87
2019-05-10T03:24:10.068Z,10.80
2019-05-10T03:29:15.151Z,11.40
2019-05-10T03:34:20.181Z,18.03
2019-05-10T03:39:25.288Z,9.47
2019-05-10T03:44:30.564Z,11.23
2019-05-10T03:49:35.507Z,15.40
2019-05-10T03:54:40.527Z,18.67
2019-05-10T03:59:45.564Z,17.90
2019-05-10T04:04:50.581Z,14.80
2019-05-10T04:09:55.694Z,21.73
2019-05-10T04:15:00.664Z,15.63
2019-05-10T04:20:08.621Z,14.00
2019-05-10T04:25:16.470Z,19.63
2019-05-10T04:30:21.688Z,17.30
2019-05-10T04:35:26.637Z,24.17
2019-05-10T04:40:31.684Z,20.00
2019-05-10T04:45:36.655Z,20.10
2019-05-10T04:50:41.696Z,35.40
2019-05-10T04:55:46.666Z,24.13
2019-05-10T05:00:51.687Z,21.00
2019-05-10T05:05:56.742Z,21.13
2019-05-10T05:11:01.793Z,28.50
2019-05-10T05:16:07.011Z,27.97
2019-05-10T05:21:12.133Z,25.23
2019-05-10T05:26:17.254Z,17.27
2019-05-10T05:31:22.205Z,23.67
2019-05-10T05:36:27.323Z,21.13
2019-05-10T05:41:32.371Z,24.37
2019-05-10T05:46:37.386Z,25.17
2019-05-10T05:51:42.372Z,18.50
2019-05-10T05:56:50.516Z,24.50
2019-05-10T06:01:54.052Z,20.80
2019-05-10T06:07:00.458Z,19.80
2019-05-10T06:12:07.454Z,16.90
2019-05-10T06:17:13.330Z,26.97
2019-05-10T06:22:18.315Z,29.60
2019-05-10T06:27:23.368Z,30.57
2019-05-10T06:32:28.472Z,28.73
2019-05-10T06:37:33.639Z,30.47
2019-05-10T06:42:38.754Z,34.23
2019-05-10T06:47:47.550Z,31.97
2019-05-10T06:52:52.170Z,25.73
2019-05-10T06:58:00.592Z,27.50
2019-05-10T07:03:03.741Z,30.57
2019-05-10T07:08:16.430Z,26.53
2019-05-10T07:13:15.507Z,30.60
2019-05-10T07:18:22.641Z,28.40
2019-05-10T07:23:30.070Z,27.63
2019-05-10T07:28:33.815Z,25.80
2019-05-10T07:33:40.122Z,23.57
2019-05-10T07:38:45.348Z,21.63
2019-05-10T07:43:50.473Z,24.67
2019-05-10T07:48:55.459Z,27.00
2019-05-10T07:54:04.473Z,29.23
2019-05-10T07:59:07.266Z,29.77
2019-05-10T08:04:13.126Z,32.20
2019-05-10T08:09:19.294Z,24.73
2019-05-10T08:14:25.474Z,32.83
2019-05-10T08:19:32.808Z,29.20
2019-05-10T08:24:37.242Z,22.33
2019-05-10T08:29:42.967Z,27.23
2019-05-10T08:34:52.990Z,29.43
2019-05-10T08:39:56.360Z,30.20
2019-05-10T08:45:05.607Z,27.03
2019-05-10T08:50:22.713Z,30.33
2019-05-10T08:55:14.972Z,28.63
2019-05-10T09:00:38.311Z,30.77
2019-05-10T09:05:29.071Z,29.17
2019-05-10T09:10:33.530Z,28.13
2019-05-10T09:15:43.277Z,27.87
2019-05-10T09:20:45.331Z,28.63
2019-05-10T09:25:51.856Z,28.03
2019-05-10T09:31:01.202Z,25.07
2019-05-10T09:36:04.476Z,25.43
2019-05-10T09:41:11.757Z,24.87
2019-05-10T09:46:16.044Z,26.03
2019-05-10T09:51:25.547Z,23.97
2019-05-10T09:56:33.098Z,17.93
2019-05-10T10:01:36.958Z,19.93
2019-05-10T10:06:45.163Z,21.90
2019-05-10T10:11:57.986Z,14.43
2019-05-10T10:17:00.533Z,15.63
2019-05-10T10:22:05.449Z,18.85
2019-05-10T10:27:08.515Z,18.10
2019-05-10T10:32:13.535Z,18.27
2019-05-10T10:37:22.153Z,18.65
2019-05-10T10:42:25.511Z,15.75
2019-05-10T10:47:32.108Z,15.70
2019-05-10T10:52:37.696Z,17.70
2019-05-10T10:57:42.891Z,18.80
2019-05-10T11:02:51.973Z,19.00
2019-05-10T11:07:54.631Z,18.67
2019-05-10T11:13:02.987Z,17.90
2019-05-10T11:18:07.795Z,7.37
2019-05-10T13:03:54.022Z,11.00
2019-05-10T13:08:59.003Z,10.97
2019-05-10T13:14:07.515Z,11.28
2019-05-10T13:19:14.054Z,12.68
2019-05-10T13:24:17.625Z,12.93
2019-05-10T13:29:22.656Z,12.28
2019-05-10T13:34:27.723Z,12.63
2019-05-10T13:39:32.756Z,10.05
2019-05-10T13:44:42.962Z,11.35
2019-05-10T13:49:48.481Z,10.08
2019-05-10T13:54:51.019Z,10.55
2019-05-10T13:59:57.430Z,8.95
2019-05-10T14:05:04.919Z,7.17
2019-05-10T14:10:11.595Z,4.75
2019-05-10T14:15:17.855Z,4.08
2019-05-10T14:20:27.754Z,4.00
2019-05-10T14:25:36.124Z,4.45
2019-05-10T14:30:36.443Z,3.27
2019-05-10T14:35:41.483Z,4.10
2019-05-10T14:40:46.609Z,3.85
2019-05-10T14:45:51.651Z,3.47
2019-05-10T14:51:03.018Z,3.80
2019-05-10T14:56:07.998Z,4.00
2019-05-10T15:01:10.012Z,3.95
2019-05-10T15:06:15.087Z,4.60
2019-05-10T15:11:20.134Z,3.37
2019-05-10T15:16:27.312Z,2.47
2019-05-10T15:21:34.556Z,3.08
2019-05-10T15:26:43.882Z,3.87
2019-05-10T15:31:44.956Z,4.63
2019-05-10T15:36:50.074Z,6.60
2019-05-10T15:41:59.184Z,6.90
2019-05-10T15:47:01.787Z,6.80
2019-05-10T15:52:17.426Z,5.47
2019-05-10T15:57:14.617Z,4.00
2019-05-10T16:02:20.448Z,4.60
2019-05-10T16:07:25.539Z,4.63
2019-05-10T16:12:30.835Z,6.83
2019-05-10T16:17:35.904Z,6.93
2019-05-10T16:22:42.052Z,7.80
2019-05-10T16:27:47.032Z,1.27
2019-05-10T16:32:51.975Z,2.40
2019-05-10T16:37:56.947Z,1.50
2019-05-10T16:43:06.982Z,1.40
2019-05-10T16:48:08.631Z,1.27
2019-05-10T16:53:13.653Z,2.43
2019-05-10T16:58:22.130Z,1.30
2019-05-10T17:03:25.192Z,1.40
2019-05-10T17:08:30.685Z,1.63
2019-05-10T17:13:41.568Z,1.83
2019-05-10T17:18:43.475Z,1.87
2019-05-10T17:23:48.709Z,1.27
2019-05-10T17:28:53.886Z,4.90
2019-05-10T17:33:58.928Z,2.07
2019-05-10T17:39:05.866Z,2.70
2019-05-10T17:44:11.043Z,2.73
2019-05-10T17:49:18.517Z,2.43
2019-05-10T17:54:22.758Z,2.80
2019-05-10T17:59:27.701Z,2.90
2019-05-10T18:04:32.668Z,3.40
2019-05-10T18:09:37.823Z,5.80
2019-05-10T18:14:42.874Z,4.50
2019-05-10T18:19:47.898Z,5.70
2019-05-10T18:24:52.880Z,5.87
2019-05-10T18:29:57.888Z,5.37
2019-05-10T18:35:13.335Z,4.10
2019-05-10T18:40:10.781Z,5.70
2019-05-10T18:45:15.928Z,4.50
2019-05-10T18:50:21.046Z,3.70
2019-05-10T18:55:26.095Z,6.33
2019-05-10T19:00:32.260Z,5.37
2019-05-10T19:05:37.346Z,6.83
2019-05-10T19:10:43.478Z,7.80
2019-05-10T19:15:52.950Z,5.53
2019-05-10T19:20:56.403Z,5.17
2019-05-10T19:26:01.507Z,8.13
2019-05-10T19:31:06.627Z,7.10
2019-05-10T19:36:13.047Z,13.33
2019-05-10T19:41:20.282Z,11.17
2019-05-10T19:46:30.250Z,16.47
2019-05-10T19:51:31.687Z,9.20
2019-05-10T19:56:38.834Z,11.60
2019-05-10T20:01:45.435Z,13.47
2019-05-10T20:06:50.243Z,8.97
2019-05-10T20:11:55.439Z,9.33
2019-05-10T20:17:00.485Z,9.87
2019-05-10T20:22:05.603Z,9.63
2019-05-10T20:27:10.673Z,8.63
2019-05-10T20:32:15.718Z,10.77
2019-05-10T20:37:21.464Z,9.93
2019-05-10T20:42:26.570Z,10.30
2019-05-10T20:47:31.556Z,10.73
2019-05-10T20:52:36.591Z,12.70
2019-05-10T20:57:42.640Z,13.03
2019-05-10T21:02:47.700Z,11.27
2019-05-10T21:07:53.727Z,12.30
2019-05-10T21:12:58.755Z,17.37
2019-05-10T21:18:03.832Z,12.37
2019-05-10T21:23:09.896Z,11.87
2019-05-10T21:28:14.903Z,14.30
2019-05-10T21:33:20.042Z,13.17
2019-05-10T21:38:33.110Z,11.17
2019-05-10T21:43:31.607Z,13.07
2019-05-10T21:48:36.574Z,12.70
2019-05-10T21:53:41.548Z,12.50
2019-05-10T21:58:46.590Z,13.40
2019-05-10T22:03:51.684Z,10.90
2019-05-10T22:08:56.818Z,14.43
2019-05-10T22:14:01.908Z,15.33
2019-05-10T22:19:08.022Z,15.60
2019-05-10T22:24:13.151Z,13.77
2019-05-10T22:29:18.166Z,14.67
2019-05-10T22:34:23.234Z,16.07
2019-05-10T22:39:28.263Z,13.50
2019-05-10T22:44:33.384Z,12.97
2019-05-10T22:49:38.403Z,14.30
2019-05-10T22:54:43.385Z,13.17
2019-05-10T22:59:48.371Z,15.07
2019-05-10T23:04:54.409Z,12.43
2019-05-10T23:09:59.439Z,14.17
2019-05-10T23:15:06.163Z,12.00
2019-05-10T23:20:11.863Z,12.70
2019-05-10T23:25:16.826Z,15.23
2019-05-10T23:30:21.945Z,13.37
2019-05-10T23:35:27.002Z,12.13
2019-05-10T23:40:32.103Z,14.13
2019-05-10T23:45:37.320Z,12.43
2019-05-10T23:50:42.350Z,12.60
2019-05-10T23:55:47.378Z,11.57
